sensor_id;sensor_type;location;lat;lon;timestamp;P1;durP1;ratioP1;P2;durP2;ratioP2
48667;SDS011;34453;52.198;5.004;2023-02-28T00:00:23;4.25;;;1.52;;
48667;SDS011;34453;52.198;5.004;2023-02-28T00:02:49;2.60;;;1.50;;
48667;SDS011;34453;52.198;5.004;2023-02-28T00:05:15;3.40;;;2.08;;
48667;SDS011;34453;52.198;5.004;2023-02-28T00:07:41;1.70;;;1.60;;
48667;SDS011;34453;52.198;5.004;2023-02-28T00:10:10;1.88;;;1.63;;
48667;SDS011;34453;52.198;5.004;2023-02-28T00:12:36;2.80;;;1.63;;
48667;SDS011;34453;52.198;5.004;2023-02-28T00:15:02;4.43;;;2.22;;
48667;SDS011;34453;52.198;5.004;2023-02-28T00:17:29;2.47;;;1.98;;
48667;SDS011;34453;52.198;5.004;2023-02-28T00:19:55;2.75;;;1.60;;
48667;SDS011;34453;52.198;5.004;2023-02-28T00:22:20;1.55;;;1.45;;
48667;SDS011;34453;52.198;5.004;2023-02-28T00:24:46;7.13;;;2.08;;
48667;SDS011;34453;52.198;5.004;2023-02-28T00:27:12;4.00;;;2.05;;
48667;SDS011;34453;52.198;5.004;2023-02-28T00:29:37;8.23;;;2.47;;
48667;SDS011;34453;52.198;5.004;2023-02-28T00:32:03;1.73;;;1.42;;
48667;SDS011;34453;52.198;5.004;2023-02-28T00:34:29;4.20;;;1.85;;
48667;SDS011;34453;52.198;5.004;2023-02-28T00:36:54;3.47;;;2.35;;
48667;SDS011;34453;52.198;5.004;2023-02-28T00:39:19;3.33;;;2.03;;
48667;SDS011;34453;52.198;5.004;2023-02-28T00:41:44;5.15;;;1.42;;
48667;SDS011;34453;52.198;5.004;2023-02-28T00:44:10;4.15;;;1.90;;
48667;SDS011;34453;52.198;5.004;2023-02-28T00:46:35;3.85;;;1.80;;
48667;SDS011;34453;52.198;5.004;2023-02-28T00:49:00;4.00;;;1.75;;
48667;SDS011;34453;52.198;5.004;2023-02-28T00:51:25;2.13;;;1.55;;
48667;SDS011;34453;52.198;5.004;2023-02-28T00:53:51;5.65;;;1.50;;
48667;SDS011;34453;52.198;5.004;2023-02-28T00:56:16;3.85;;;1.80;;
48667;SDS011;34453;52.198;5.004;2023-02-28T00:58:41;2.60;;;1.27;;
48667;SDS011;34453;52.198;5.004;2023-02-28T01:01:06;6.07;;;1.67;;
48667;SDS011;34453;52.198;5.004;2023-02-28T01:03:32;3.30;;;1.67;;
48667;SDS011;34453;52.198;5.004;2023-02-28T01:05:57;2.88;;;1.58;;
48667;SDS011;34453;52.198;5.004;2023-02-28T01:08:22;5.25;;;1.63;;
48667;SDS011;34453;52.198;5.004;2023-02-28T01:10:48;5.25;;;2.13;;
48667;SDS011;34453;52.198;5.004;2023-02-28T01:13:13;4.75;;;1.60;;
48667;SDS011;34453;52.198;5.004;2023-02-28T01:15:42;5.78;;;1.67;;
48667;SDS011;34453;52.198;5.004;2023-02-28T01:18:08;5.20;;;1.85;;
48667;SDS011;34453;52.198;5.004;2023-02-28T01:20:35;3.80;;;1.80;;
48667;SDS011;34453;52.198;5.004;2023-02-28T01:23:01;3.08;;;1.85;;
48667;SDS011;34453;52.198;5.004;2023-02-28T01:25:26;2.00;;;1.85;;
48667;SDS011;34453;52.198;5.004;2023-02-28T01:27:51;1.98;;;1.85;;
48667;SDS011;34453;52.198;5.004;2023-02-28T01:30:17;5.07;;;1.60;;
48667;SDS011;34453;52.198;5.004;2023-02-28T01:32:42;1.75;;;1.65;;
48667;SDS011;34453;52.198;5.004;2023-02-28T01:35:07;3.13;;;2.03;;
48667;SDS011;34453;52.198;5.004;2023-02-28T01:37:33;3.00;;;1.80;;
48667;SDS011;34453;52.198;5.004;2023-02-28T01:39:58;1.73;;;1.20;;
48667;SDS011;34453;52.198;5.004;2023-02-28T01:42:23;4.45;;;1.92;;
48667;SDS011;34453;52.198;5.004;2023-02-28T01:44:59;1.98;;;1.73;;
48667;SDS011;34453;52.198;5.004;2023-02-28T01:47:25;5.07;;;2.05;;
48667;SDS011;34453;52.198;5.004;2023-02-28T01:49:52;1.63;;;1.52;;
48667;SDS011;34453;52.198;5.004;2023-02-28T01:52:17;3.95;;;1.75;;
48667;SDS011;34453;52.198;5.004;2023-02-28T01:54:48;1.75;;;1.65;;
48667;SDS011;34453;52.198;5.004;2023-02-28T01:57:15;3.15;;;2.33;;
48667;SDS011;34453;52.198;5.004;2023-02-28T01:59:43;4.13;;;1.70;;
48667;SDS011;34453;52.198;5.004;2023-02-28T02:02:11;2.13;;;1.55;;
48667;SDS011;34453;52.198;5.004;2023-02-28T02:07:20;1.77;;;1.67;;
48667;SDS011;34453;52.198;5.004;2023-02-28T02:09:46;2.88;;;1.75;;
48667;SDS011;34453;52.198;5.004;2023-02-28T02:17:31;3.80;;;1.98;;
48667;SDS011;34453;52.198;5.004;2023-02-28T02:20:16;3.63;;;1.90;;
48667;SDS011;34453;52.198;5.004;2023-02-28T02:36:30;2.30;;;1.85;;
48667;SDS011;34453;52.198;5.004;2023-02-28T02:39:00;5.53;;;2.22;;
48667;SDS011;34453;52.198;5.004;2023-02-28T02:41:37;2.15;;;1.98;;
48667;SDS011;34453;52.198;5.004;2023-02-28T02:46:32;3.63;;;1.92;;
48667;SDS011;34453;52.198;5.004;2023-02-28T02:48:59;3.75;;;2.15;;
48667;SDS011;34453;52.198;5.004;2023-02-28T02:51:25;2.42;;;2.25;;
48667;SDS011;34453;52.198;5.004;2023-02-28T02:53:55;5.63;;;2.38;;
48667;SDS011;34453;52.198;5.004;2023-02-28T02:56:23;1.83;;;1.73;;
48667;SDS011;34453;52.198;5.004;2023-02-28T02:58:49;2.65;;;2.40;;
48667;SDS011;34453;52.198;5.004;2023-02-28T03:01:17;9.90;;;3.58;;
48667;SDS011;34453;52.198;5.004;2023-02-28T03:03:52;5.05;;;3.10;;
48667;SDS011;34453;52.198;5.004;2023-02-28T03:06:18;6.72;;;2.78;;
48667;SDS011;34453;52.198;5.004;2023-02-28T03:08:43;5.00;;;2.92;;
48667;SDS011;34453;52.198;5.004;2023-02-28T03:11:12;6.22;;;2.88;;
48667;SDS011;34453;52.198;5.004;2023-02-28T03:21:21;7.90;;;3.00;;
48667;SDS011;34453;52.198;5.004;2023-02-28T03:23:53;3.15;;;2.70;;
48667;SDS011;34453;52.198;5.004;2023-02-28T03:26:24;2.75;;;2.50;;
48667;SDS011;34453;52.198;5.004;2023-02-28T03:29:08;3.30;;;2.38;;
48667;SDS011;34453;52.198;5.004;2023-02-28T03:31:41;3.50;;;3.20;;
48667;SDS011;34453;52.198;5.004;2023-02-28T03:34:09;3.83;;;3.03;;
48667;SDS011;34453;52.198;5.004;2023-02-28T03:36:37;4.93;;;2.88;;
48667;SDS011;34453;52.198;5.004;2023-02-28T03:39:08;2.55;;;2.25;;
48667;SDS011;34453;52.198;5.004;2023-02-28T03:41:38;2.72;;;2.53;;
48667;SDS011;34453;52.198;5.004;2023-02-28T03:44:11;2.33;;;2.17;;
48667;SDS011;34453;52.198;5.004;2023-02-28T03:46:46;4.82;;;3.00;;
48667;SDS011;34453;52.198;5.004;2023-02-28T03:51:39;7.20;;;3.40;;
48667;SDS011;34453;52.198;5.004;2023-02-28T03:54:06;2.42;;;2.30;;
48667;SDS011;34453;52.198;5.004;2023-02-28T03:56:39;2.65;;;2.40;;
48667;SDS011;34453;52.198;5.004;2023-02-28T03:59:17;2.55;;;2.45;;
48667;SDS011;34453;52.198;5.004;2023-02-28T04:01:44;2.83;;;2.42;;
48667;SDS011;34453;52.198;5.004;2023-02-28T04:04:10;4.82;;;3.10;;
48667;SDS011;34453;52.198;5.004;2023-02-28T04:06:36;2.90;;;2.63;;
48667;SDS011;34453;52.198;5.004;2023-02-28T04:09:02;3.10;;;2.90;;
48667;SDS011;34453;52.198;5.004;2023-02-28T04:14:00;6.60;;;3.13;;
48667;SDS011;34453;52.198;5.004;2023-02-28T04:16:25;2.75;;;2.55;;
48667;SDS011;34453;52.198;5.004;2023-02-28T04:18:51;5.28;;;3.13;;
48667;SDS011;34453;52.198;5.004;2023-02-28T04:21:16;3.47;;;3.17;;
48667;SDS011;34453;52.198;5.004;2023-02-28T04:23:45;3.90;;;3.10;;
48667;SDS011;34453;52.198;5.004;2023-02-28T04:26:10;6.40;;;3.10;;
48667;SDS011;34453;52.198;5.004;2023-02-28T04:28:36;4.60;;;3.75;;
48667;SDS011;34453;52.198;5.004;2023-02-28T04:31:02;8.38;;;3.35;;
48667;SDS011;34453;52.198;5.004;2023-02-28T04:33:28;3.88;;;3.55;;
48667;SDS011;34453;52.198;5.004;2023-02-28T04:35:58;4.10;;;2.95;;
48667;SDS011;34453;52.198;5.004;2023-02-28T04:38:23;5.03;;;3.70;;
48667;SDS011;34453;52.198;5.004;2023-02-28T04:40:48;3.25;;;3.00;;
48667;SDS011;34453;52.198;5.004;2023-02-28T04:43:14;5.93;;;3.42;;
48667;SDS011;34453;52.198;5.004;2023-02-28T04:45:39;7.72;;;4.53;;
48667;SDS011;34453;52.198;5.004;2023-02-28T04:48:05;8.25;;;4.57;;
48667;SDS011;34453;52.198;5.004;2023-02-28T04:50:30;4.82;;;3.65;;
48667;SDS011;34453;52.198;5.004;2023-02-28T04:52:56;7.95;;;5.22;;
48667;SDS011;34453;52.198;5.004;2023-02-28T04:55:21;8.95;;;4.50;;
48667;SDS011;34453;52.198;5.004;2023-02-28T04:57:46;7.90;;;5.13;;
48667;SDS011;34453;52.198;5.004;2023-02-28T05:00:12;4.93;;;4.40;;
48667;SDS011;34453;52.198;5.004;2023-02-28T05:02:40;6.07;;;4.45;;
48667;SDS011;34453;52.198;5.004;2023-02-28T05:05:05;7.90;;;5.90;;
48667;SDS011;34453;52.198;5.004;2023-02-28T05:07:30;7.78;;;4.82;;
48667;SDS011;34453;52.198;5.004;2023-02-28T05:09:56;7.60;;;5.22;;
48667;SDS011;34453;52.198;5.004;2023-02-28T05:12:21;8.73;;;5.60;;
48667;SDS011;34453;52.198;5.004;2023-02-28T05:14:46;12.63;;;5.07;;
48667;SDS011;34453;52.198;5.004;2023-02-28T05:17:12;6.25;;;5.40;;
48667;SDS011;34453;52.198;5.004;2023-02-28T05:19:37;6.30;;;5.65;;
48667;SDS011;34453;52.198;5.004;2023-02-28T05:22:02;8.15;;;5.93;;
48667;SDS011;34453;52.198;5.004;2023-02-28T05:24:27;9.65;;;6.32;;
48667;SDS011;34453;52.198;5.004;2023-02-28T05:26:53;14.80;;;7.60;;
48667;SDS011;34453;52.198;5.004;2023-02-28T05:29:18;5.55;;;5.05;;
48667;SDS011;34453;52.198;5.004;2023-02-28T05:31:44;8.70;;;4.70;;
48667;SDS011;34453;52.198;5.004;2023-02-28T05:34:09;11.55;;;4.78;;
48667;SDS011;34453;52.198;5.004;2023-02-28T05:36:37;7.32;;;4.43;;
48667;SDS011;34453;52.198;5.004;2023-02-28T05:39:02;6.30;;;4.57;;
48667;SDS011;34453;52.198;5.004;2023-02-28T05:41:28;8.20;;;4.25;;
48667;SDS011;34453;52.198;5.004;2023-02-28T05:43:53;11.90;;;3.95;;
48667;SDS011;34453;52.198;5.004;2023-02-28T05:46:18;4.03;;;3.70;;
48667;SDS011;34453;52.198;5.004;2023-02-28T05:48:45;6.18;;;5.57;;
48667;SDS011;34453;52.198;5.004;2023-02-28T05:51:11;12.10;;;5.82;;
48667;SDS011;34453;52.198;5.004;2023-02-28T05:53:36;12.90;;;4.43;;
48667;SDS011;34453;52.198;5.004;2023-02-28T05:56:02;6.47;;;3.63;;
48667;SDS011;34453;52.198;5.004;2023-02-28T05:58:27;7.60;;;3.53;;
48667;SDS011;34453;52.198;5.004;2023-02-28T06:00:56;3.65;;;3.35;;
48667;SDS011;34453;52.198;5.004;2023-02-28T06:03:21;7.63;;;3.53;;
48667;SDS011;34453;52.198;5.004;2023-02-28T06:05:46;3.75;;;3.40;;
48667;SDS011;34453;52.198;5.004;2023-02-28T06:08:12;5.13;;;2.95;;
48667;SDS011;34453;52.198;5.004;2023-02-28T06:10:37;3.22;;;3.03;;
48667;SDS011;34453;52.198;5.004;2023-02-28T06:13:03;6.55;;;3.58;;
48667;SDS011;34453;52.198;5.004;2023-02-28T06:15:28;4.10;;;3.80;;
48667;SDS011;34453;52.198;5.004;2023-02-28T06:17:54;2.97;;;2.65;;
48667;SDS011;34453;52.198;5.004;2023-02-28T06:20:21;3.92;;;3.05;;
48667;SDS011;34453;52.198;5.004;2023-02-28T06:22:47;5.13;;;3.22;;
48667;SDS011;34453;52.198;5.004;2023-02-28T06:25:12;5.88;;;3.25;;
48667;SDS011;34453;52.198;5.004;2023-02-28T06:27:37;2.85;;;2.63;;
48667;SDS011;34453;52.198;5.004;2023-02-28T06:30:03;3.70;;;3.38;;
48667;SDS011;34453;52.198;5.004;2023-02-28T06:32:28;4.05;;;3.65;;
48667;SDS011;34453;52.198;5.004;2023-02-28T06:34:53;5.40;;;3.63;;
48667;SDS011;34453;52.198;5.004;2023-02-28T06:37:19;7.95;;;3.92;;
48667;SDS011;34453;52.198;5.004;2023-02-28T06:39:44;3.53;;;3.22;;
48667;SDS011;34453;52.198;5.004;2023-02-28T06:42:09;3.17;;;2.97;;
48667;SDS011;34453;52.198;5.004;2023-02-28T06:44:34;3.08;;;2.83;;
48667;SDS011;34453;52.198;5.004;2023-02-28T06:47:03;5.85;;;3.67;;
48667;SDS011;34453;52.198;5.004;2023-02-28T06:49:29;5.20;;;3.33;;
48667;SDS011;34453;52.198;5.004;2023-02-28T06:51:55;6.80;;;3.75;;
48667;SDS011;34453;52.198;5.004;2023-02-28T06:54:20;4.18;;;2.78;;
48667;SDS011;34453;52.198;5.004;2023-02-28T06:56:46;3.85;;;3.38;;
48667;SDS011;34453;52.198;5.004;2023-02-28T06:59:12;3.92;;;3.25;;
48667;SDS011;34453;52.198;5.004;2023-02-28T07:01:37;5.07;;;2.97;;
48667;SDS011;34453;52.198;5.004;2023-02-28T07:04:04;5.95;;;2.75;;
48667;SDS011;34453;52.198;5.004;2023-02-28T07:06:30;4.00;;;3.70;;
48667;SDS011;34453;52.198;5.004;2023-02-28T07:08:55;3.72;;;3.53;;
48667;SDS011;34453;52.198;5.004;2023-02-28T07:11:21;7.03;;;4.28;;
48667;SDS011;34453;52.198;5.004;2023-02-28T07:13:50;3.80;;;3.58;;
48667;SDS011;34453;52.198;5.004;2023-02-28T07:16:16;4.05;;;3.20;;
48667;SDS011;34453;52.198;5.004;2023-02-28T07:18:41;3.83;;;3.45;;
48667;SDS011;34453;52.198;5.004;2023-02-28T07:21:07;3.08;;;2.88;;
48667;SDS011;34453;52.198;5.004;2023-02-28T07:23:33;5.53;;;3.00;;
48667;SDS011;34453;52.198;5.004;2023-02-28T07:25:58;3.72;;;3.42;;
48667;SDS011;34453;52.198;5.004;2023-02-28T07:28:24;4.95;;;3.42;;
48667;SDS011;34453;52.198;5.004;2023-02-28T07:30:49;4.50;;;3.22;;
48667;SDS011;34453;52.198;5.004;2023-02-28T07:33:14;3.35;;;3.05;;
48667;SDS011;34453;52.198;5.004;2023-02-28T07:35:40;5.28;;;3.45;;
48667;SDS011;34453;52.198;5.004;2023-02-28T07:38:05;5.55;;;3.55;;
48667;SDS011;34453;52.198;5.004;2023-02-28T07:40:32;4.82;;;2.90;;
48667;SDS011;34453;52.198;5.004;2023-02-28T07:42:58;2.60;;;2.50;;
48667;SDS011;34453;52.198;5.004;2023-02-28T07:45:23;3.15;;;2.70;;
48667;SDS011;34453;52.198;5.004;2023-02-28T07:47:49;3.15;;;2.95;;
48667;SDS011;34453;52.198;5.004;2023-02-28T07:50:15;4.60;;;3.00;;
48667;SDS011;34453;52.198;5.004;2023-02-28T07:52:41;4.78;;;3.20;;
48667;SDS011;34453;52.198;5.004;2023-02-28T07:55:06;3.80;;;3.50;;
48667;SDS011;34453;52.198;5.004;2023-02-28T07:57:32;6.28;;;5.05;;
48667;SDS011;34453;52.198;5.004;2023-02-28T07:59:57;5.80;;;4.30;;
48667;SDS011;34453;52.198;5.004;2023-02-28T08:02:22;4.22;;;3.85;;
48667;SDS011;34453;52.198;5.004;2023-02-28T08:04:48;3.92;;;3.45;;
48667;SDS011;34453;52.198;5.004;2023-02-28T08:07:14;4.63;;;4.13;;
48667;SDS011;34453;52.198;5.004;2023-02-28T08:09:39;5.88;;;4.20;;
48667;SDS011;34453;52.198;5.004;2023-02-28T08:12:05;4.13;;;3.63;;
48667;SDS011;34453;52.198;5.004;2023-02-28T08:14:31;4.30;;;3.90;;
48667;SDS011;34453;52.198;5.004;2023-02-28T08:16:56;4.32;;;3.92;;
48667;SDS011;34453;52.198;5.004;2023-02-28T08:19:21;4.35;;;3.65;;
48667;SDS011;34453;52.198;5.004;2023-02-28T08:21:46;3.50;;;3.30;;
48667;SDS011;34453;52.198;5.004;2023-02-28T08:24:12;4.32;;;4.03;;
48667;SDS011;34453;52.198;5.004;2023-02-28T08:26:37;4.30;;;4.00;;
48667;SDS011;34453;52.198;5.004;2023-02-28T08:29:02;7.15;;;4.38;;
48667;SDS011;34453;52.198;5.004;2023-02-28T08:31:27;3.92;;;3.67;;
48667;SDS011;34453;52.198;5.004;2023-02-28T08:33:53;4.95;;;3.67;;
48667;SDS011;34453;52.198;5.004;2023-02-28T08:36:20;4.90;;;3.78;;
48667;SDS011;34453;52.198;5.004;2023-02-28T08:38:46;4.65;;;4.18;;
48667;SDS011;34453;52.198;5.004;2023-02-28T08:41:11;4.07;;;3.88;;
48667;SDS011;34453;52.198;5.004;2023-02-28T08:43:37;5.25;;;4.18;;
48667;SDS011;34453;52.198;5.004;2023-02-28T08:46:03;3.80;;;3.60;;
48667;SDS011;34453;52.198;5.004;2023-02-28T08:48:29;4.45;;;4.22;;
48667;SDS011;34453;52.198;5.004;2023-02-28T08:50:55;4.35;;;4.05;;
48667;SDS011;34453;52.198;5.004;2023-02-28T08:53:20;6.05;;;4.68;;
48667;SDS011;34453;52.198;5.004;2023-02-28T08:55:46;4.80;;;3.95;;
48667;SDS011;34453;52.198;5.004;2023-02-28T08:58:11;4.13;;;3.83;;
48667;SDS011;34453;52.198;5.004;2023-02-28T09:00:36;5.25;;;4.85;;
48667;SDS011;34453;52.198;5.004;2023-02-28T09:03:01;4.03;;;3.72;;
48667;SDS011;34453;52.198;5.004;2023-02-28T09:05:27;6.40;;;5.45;;
48667;SDS011;34453;52.198;5.004;2023-02-28T09:07:54;6.45;;;4.90;;
48667;SDS011;34453;52.198;5.004;2023-02-28T09:10:19;4.95;;;4.22;;
48667;SDS011;34453;52.198;5.004;2023-02-28T09:12:44;4.20;;;3.88;;
48667;SDS011;34453;52.198;5.004;2023-02-28T09:15:11;4.82;;;4.43;;
48667;SDS011;34453;52.198;5.004;2023-02-28T09:17:37;6.65;;;4.05;;
48667;SDS011;34453;52.198;5.004;2023-02-28T09:20:02;6.15;;;4.40;;
48667;SDS011;34453;52.198;5.004;2023-02-28T09:22:27;4.63;;;4.22;;
48667;SDS011;34453;52.198;5.004;2023-02-28T09:24:53;4.07;;;3.88;;
48667;SDS011;34453;52.198;5.004;2023-02-28T09:27:18;6.22;;;4.72;;
48667;SDS011;34453;52.198;5.004;2023-02-28T09:29:43;5.65;;;4.82;;
48667;SDS011;34453;52.198;5.004;2023-02-28T09:32:09;5.50;;;3.88;;
48667;SDS011;34453;52.198;5.004;2023-02-28T09:34:34;4.28;;;3.47;;
48667;SDS011;34453;52.198;5.004;2023-02-28T09:37:02;7.80;;;4.18;;
48667;SDS011;34453;52.198;5.004;2023-02-28T09:39:27;4.22;;;3.92;;
48667;SDS011;34453;52.198;5.004;2023-02-28T09:41:54;5.10;;;4.63;;
48667;SDS011;34453;52.198;5.004;2023-02-28T09:44:39;8.90;;;6.00;;
48667;SDS011;34453;52.198;5.004;2023-02-28T09:49:49;5.03;;;4.35;;
48667;SDS011;34453;52.198;5.004;2023-02-28T09:52:17;6.60;;;4.20;;
48667;SDS011;34453;52.198;5.004;2023-02-28T09:54:42;7.43;;;5.47;;
48667;SDS011;34453;52.198;5.004;2023-02-28T10:02:46;6.05;;;3.72;;
48667;SDS011;34453;52.198;5.004;2023-02-28T10:05:17;5.35;;;3.63;;
48667;SDS011;34453;52.198;5.004;2023-02-28T10:10:17;6.82;;;3.70;;
48667;SDS011;34453;52.198;5.004;2023-02-28T10:12:44;3.33;;;3.17;;
48667;SDS011;34453;52.198;5.004;2023-02-28T10:15:14;3.42;;;3.13;;
48667;SDS011;34453;52.198;5.004;2023-02-28T10:17:39;4.15;;;3.17;;
48667;SDS011;34453;52.198;5.004;2023-02-28T10:20:17;4.20;;;3.88;;
48667;SDS011;34453;52.198;5.004;2023-02-28T10:22:57;3.35;;;2.65;;
48667;SDS011;34453;52.198;5.004;2023-02-28T10:25:24;3.22;;;2.95;;
48667;SDS011;34453;52.198;5.004;2023-02-28T10:27:50;2.55;;;2.40;;
48667;SDS011;34453;52.198;5.004;2023-02-28T10:30:18;2.33;;;2.22;;
48667;SDS011;34453;52.198;5.004;2023-02-28T10:32:46;1.92;;;1.83;;
48667;SDS011;34453;52.198;5.004;2023-02-28T10:35:17;3.35;;;2.20;;
48667;SDS011;34453;52.198;5.004;2023-02-28T10:37:44;4.93;;;2.15;;
48667;SDS011;34453;52.198;5.004;2023-02-28T10:42:59;2.10;;;2.00;;
48667;SDS011;34453;52.198;5.004;2023-02-28T10:45:25;4.00;;;2.30;;
48667;SDS011;34453;52.198;5.004;2023-02-28T10:47:57;1.95;;;1.85;;
48667;SDS011;34453;52.198;5.004;2023-02-28T10:52:48;2.70;;;2.42;;
48667;SDS011;34453;52.198;5.004;2023-02-28T10:55:14;5.25;;;2.60;;
48667;SDS011;34453;52.198;5.004;2023-02-28T10:57:40;2.08;;;1.98;;
48667;SDS011;34453;52.198;5.004;2023-02-28T11:02:40;2.20;;;2.10;;
48667;SDS011;34453;52.198;5.004;2023-02-28T11:07:54;3.15;;;2.47;;
48667;SDS011;34453;52.198;5.004;2023-02-28T11:10:20;4.28;;;1.92;;
48667;SDS011;34453;52.198;5.004;2023-02-28T11:12:46;2.95;;;2.28;;
48667;SDS011;34453;52.198;5.004;2023-02-28T11:15:24;2.30;;;2.03;;
48667;SDS011;34453;52.198;5.004;2023-02-28T11:18:33;2.90;;;1.90;;
48667;SDS011;34453;52.198;5.004;2023-02-28T11:20:39;3.75;;;2.22;;
48667;SDS011;34453;52.198;5.004;2023-02-28T11:23:05;2.08;;;1.95;;
48667;SDS011;34453;52.198;5.004;2023-02-28T11:25:36;2.58;;;2.38;;
48667;SDS011;34453;52.198;5.004;2023-02-28T11:28:24;2.13;;;2.03;;
48667;SDS011;34453;52.198;5.004;2023-02-28T11:30:49;2.20;;;2.08;;
48667;SDS011;34453;52.198;5.004;2023-02-28T11:33:30;3.47;;;2.42;;
48667;SDS011;34453;52.198;5.004;2023-02-28T11:35:57;4.30;;;2.40;;
48667;SDS011;34453;52.198;5.004;2023-02-28T11:38:24;3.08;;;1.83;;
48667;SDS011;34453;52.198;5.004;2023-02-28T11:48:44;2.28;;;2.08;;
48667;SDS011;34453;52.198;5.004;2023-02-28T11:51:24;1.73;;;1.63;;
48667;SDS011;34453;52.198;5.004;2023-02-28T11:56:37;6.43;;;3.47;;
48667;SDS011;34453;52.198;5.004;2023-02-28T12:04:30;2.80;;;2.60;;
48667;SDS011;34453;52.198;5.004;2023-02-28T12:24:55;2.15;;;1.70;;
48667;SDS011;34453;52.198;5.004;2023-02-28T12:27:23;1.60;;;1.50;;
48667;SDS011;34453;52.198;5.004;2023-02-28T12:29:51;1.40;;;1.40;;
48667;SDS011;34453;52.198;5.004;2023-02-28T12:35:32;3.42;;;1.98;;
48667;SDS011;34453;52.198;5.004;2023-02-28T12:37:44;4.30;;;1.75;;
48667;SDS011;34453;52.198;5.004;2023-02-28T12:40:13;1.10;;;1.10;;
48667;SDS011;34453;52.198;5.004;2023-02-28T12:42:42;1.95;;;1.15;;
48667;SDS011;34453;52.198;5.004;2023-02-28T12:47:37;1.17;;;1.08;;
48667;SDS011;34453;52.198;5.004;2023-02-28T12:50:04;1.42;;;1.33;;
48667;SDS011;34453;52.198;5.004;2023-02-28T12:57:31;1.42;;;1.33;;
48667;SDS011;34453;52.198;5.004;2023-02-28T12:59:58;1.25;;;1.25;;
48667;SDS011;34453;52.198;5.004;2023-02-28T13:10:14;1.08;;;1.08;;
48667;SDS011;34453;52.198;5.004;2023-02-28T13:12:51;1.38;;;1.27;;
48667;SDS011;34453;52.198;5.004;2023-02-28T13:15:21;1.40;;;1.30;;
48667;SDS011;34453;52.198;5.004;2023-02-28T13:17:50;1.95;;;0.85;;
48667;SDS011;34453;52.198;5.004;2023-02-28T13:20:35;1.25;;;1.15;;
48667;SDS011;34453;52.198;5.004;2023-02-28T13:23:01;2.95;;;1.20;;
48667;SDS011;34453;52.198;5.004;2023-02-28T13:27:58;1.63;;;1.52;;
48667;SDS011;34453;52.198;5.004;2023-02-28T13:36:50;1.13;;;1.13;;
48667;SDS011;34453;52.198;5.004;2023-02-28T13:54:42;1.63;;;1.52;;
48667;SDS011;34453;52.198;5.004;2023-02-28T13:59:43;1.90;;;1.27;;
48667;SDS011;34453;52.198;5.004;2023-02-28T14:07:26;2.08;;;1.92;;
48667;SDS011;34453;52.198;5.004;2023-02-28T14:10:01;2.05;;;1.95;;
48667;SDS011;34453;52.198;5.004;2023-02-28T14:15:27;4.15;;;2.13;;
48667;SDS011;34453;52.198;5.004;2023-02-28T14:17:54;2.00;;;1.90;;
48667;SDS011;34453;52.198;5.004;2023-02-28T14:20:20;2.20;;;1.77;;
48667;SDS011;34453;52.198;5.004;2023-02-28T14:25:21;2.25;;;2.15;;
48667;SDS011;34453;52.198;5.004;2023-02-28T14:35:50;2.20;;;2.10;;
48667;SDS011;34453;52.198;5.004;2023-02-28T14:38:28;2.25;;;1.88;;
48667;SDS011;34453;52.198;5.004;2023-02-28T14:40:55;2.75;;;2.10;;
48667;SDS011;34453;52.198;5.004;2023-02-28T14:43:23;2.80;;;2.30;;
48667;SDS011;34453;52.198;5.004;2023-02-28T14:45:52;5.18;;;2.40;;
48667;SDS011;34453;52.198;5.004;2023-02-28T14:48:19;3.03;;;2.05;;
48667;SDS011;34453;52.198;5.004;2023-02-28T14:50:48;2.42;;;2.03;;
48667;SDS011;34453;52.198;5.004;2023-02-28T14:53:15;7.15;;;2.38;;
48667;SDS011;34453;52.198;5.004;2023-02-28T14:55:43;3.22;;;2.25;;
48667;SDS011;34453;52.198;5.004;2023-02-28T14:58:31;2.38;;;2.28;;
48667;SDS011;34453;52.198;5.004;2023-02-28T15:00:56;3.20;;;2.05;;
48667;SDS011;34453;52.198;5.004;2023-02-28T15:05:54;2.35;;;2.25;;
48667;SDS011;34453;52.198;5.004;2023-02-28T15:08:20;2.10;;;2.00;;
48667;SDS011;34453;52.198;5.004;2023-02-28T15:11:05;3.08;;;2.60;;
48667;SDS011;34453;52.198;5.004;2023-02-28T15:13:43;5.60;;;2.35;;
48667;SDS011;34453;52.198;5.004;2023-02-28T15:19:00;2.90;;;2.70;;
48667;SDS011;34453;52.198;5.004;2023-02-28T15:21:31;5.38;;;2.55;;
48667;SDS011;34453;52.198;5.004;2023-02-28T15:26:23;5.38;;;2.80;;
48667;SDS011;34453;52.198;5.004;2023-02-28T15:28:51;3.85;;;2.42;;
48667;SDS011;34453;52.198;5.004;2023-02-28T15:31:20;3.05;;;2.40;;
48667;SDS011;34453;52.198;5.004;2023-02-28T15:33:56;3.00;;;2.80;;
48667;SDS011;34453;52.198;5.004;2023-02-28T15:36:23;2.40;;;2.30;;
48667;SDS011;34453;52.198;5.004;2023-02-28T15:38:50;2.35;;;2.15;;
48667;SDS011;34453;52.198;5.004;2023-02-28T15:43:47;2.80;;;2.22;;
48667;SDS011;34453;52.198;5.004;2023-02-28T15:46:12;4.15;;;2.60;;
48667;SDS011;34453;52.198;5.004;2023-02-28T15:48:50;4.07;;;3.63;;
48667;SDS011;34453;52.198;5.004;2023-02-28T15:51:22;2.50;;;2.40;;
48667;SDS011;34453;52.198;5.004;2023-02-28T15:53:58;2.55;;;2.45;;
48667;SDS011;34453;52.198;5.004;2023-02-28T15:58:50;2.30;;;2.10;;
48667;SDS011;34453;52.198;5.004;2023-02-28T16:01:19;2.75;;;2.35;;
48667;SDS011;34453;52.198;5.004;2023-02-28T16:03:46;1.90;;;1.80;;
48667;SDS011;34453;52.198;5.004;2023-02-28T16:08:52;2.60;;;2.40;;
48667;SDS011;34453;52.198;5.004;2023-02-28T16:11:18;4.28;;;2.20;;
48667;SDS011;34453;52.198;5.004;2023-02-28T16:13:44;2.15;;;2.05;;
48667;SDS011;34453;52.198;5.004;2023-02-28T16:16:14;2.25;;;2.15;;
48667;SDS011;34453;52.198;5.004;2023-02-28T16:18:40;2.35;;;2.25;;
48667;SDS011;34453;52.198;5.004;2023-02-28T16:21:05;4.40;;;3.03;;
48667;SDS011;34453;52.198;5.004;2023-02-28T16:23:30;3.97;;;2.15;;
48667;SDS011;34453;52.198;5.004;2023-02-28T16:25:55;3.97;;;2.00;;
48667;SDS011;34453;52.198;5.004;2023-02-28T16:28:23;2.65;;;2.47;;
48667;SDS011;34453;52.198;5.004;2023-02-28T16:30:50;2.50;;;2.35;;
48667;SDS011;34453;52.198;5.004;2023-02-28T16:33:16;3.40;;;2.17;;
48667;SDS011;34453;52.198;5.004;2023-02-28T16:35:41;6.15;;;2.47;;
48667;SDS011;34453;52.198;5.004;2023-02-28T16:38:06;5.28;;;2.13;;
48667;SDS011;34453;52.198;5.004;2023-02-28T16:40:33;2.95;;;2.72;;
48667;SDS011;34453;52.198;5.004;2023-02-28T16:42:59;2.90;;;2.70;;
48667;SDS011;34453;52.198;5.004;2023-02-28T16:45:25;3.92;;;2.70;;
48667;SDS011;34453;52.198;5.004;2023-02-28T16:47:51;3.33;;;3.13;;
48667;SDS011;34453;52.198;5.004;2023-02-28T16:50:18;3.15;;;2.80;;
48667;SDS011;34453;52.198;5.004;2023-02-28T16:52:44;3.10;;;2.90;;
48667;SDS011;34453;52.198;5.004;2023-02-28T16:55:09;2.92;;;2.70;;
48667;SDS011;34453;52.198;5.004;2023-02-28T16:57:35;2.78;;;2.60;;
48667;SDS011;34453;52.198;5.004;2023-02-28T17:00:00;4.60;;;2.35;;
48667;SDS011;34453;52.198;5.004;2023-02-28T17:02:25;2.70;;;2.50;;
48667;SDS011;34453;52.198;5.004;2023-02-28T17:04:50;3.80;;;2.90;;
48667;SDS011;34453;52.198;5.004;2023-02-28T17:07:16;4.38;;;2.72;;
48667;SDS011;34453;52.198;5.004;2023-02-28T17:09:42;2.53;;;2.42;;
48667;SDS011;34453;52.198;5.004;2023-02-28T17:12:07;3.33;;;3.05;;
48667;SDS011;34453;52.198;5.004;2023-02-28T17:14:33;6.10;;;3.25;;
48667;SDS011;34453;52.198;5.004;2023-02-28T17:16:58;2.70;;;2.60;;
48667;SDS011;34453;52.198;5.004;2023-02-28T17:19:25;5.15;;;3.42;;
48667;SDS011;34453;52.198;5.004;2023-02-28T17:21:50;4.15;;;2.33;;
48667;SDS011;34453;52.198;5.004;2023-02-28T17:24:15;3.00;;;2.90;;
48667;SDS011;34453;52.198;5.004;2023-02-28T17:26:41;4.90;;;3.35;;
48667;SDS011;34453;52.198;5.004;2023-02-28T17:29:13;4.15;;;3.75;;
48667;SDS011;34453;52.198;5.004;2023-02-28T17:31:39;3.33;;;3.05;;
48667;SDS011;34453;52.198;5.004;2023-02-28T17:34:04;3.72;;;3.42;;
48667;SDS011;34453;52.198;5.004;2023-02-28T17:36:30;3.47;;;3.17;;
48667;SDS011;34453;52.198;5.004;2023-02-28T17:38:55;5.70;;;3.22;;